King of Scandinavia — OVOL2 — position and weather

sailwx.info

Track history (hours):
 
Tides and Currents Weather Stations Pressure Air Temp Water Temp Dewpoint Dewpoint Depression Visibility Wind Speed Wind Dir Waves Ship Positions

King of Scandinavia

Ship's website: http://www.dfds.co.uk/DSW/EN/OnBoard/na/KING.htm

Last reported at 2015-Mar-28 17:33 UTC. Time now 2015-Mar-29 01:11 UTC.
Position N 52°33' E 004°22'.

Length 166 m; beam 27.6 m; draft 6.2 m.

Type: Passenger vessel. MMSI: 220449000.

Date/timePositionNaut miles runAvg speedWind from/ knotsBaromVisibWave heightAir tempDewpointWater temp
2015-Mar-28 17:33N 52°33' E 004°22'9 8.1
2015-Mar-28 16:23N 52°28' E 004°35'0 0.0
2015-Mar-28 15:32N 52°28' E 004°35'0 0.0
2015-Mar-28 14:32N 52°28' E 004°35'0 0.0
2015-Mar-28 13:32N 52°28' E 004°35'0 0.0
2015-Mar-28 12:32N 52°28' E 004°35'0 0.0
2015-Mar-28 11:26N 52°28' E 004°35'0 0.0
2015-Mar-28 10:32N 52°28' E 004°35'0 0.0
2015-Mar-28 09:32N 52°28' E 004°35'0 0.0
2015-Mar-28 08:33N 52°28' E 004°35'1111.4
2015-Mar-28 07:33N 52°34' E 004°20'2116.0
2015-Mar-28 06:15N 52°48' E 003°53'5317.3
2015-Mar-28 03:10N 53°23' E 002°46'8318.0
2015-Mar-27 22:33N 54°10' E 000°51'1818.0
2015-Mar-27 21:33N 54°20' E 000°25'1818.1
2015-Mar-27 20:33N 54°30' W 000°01'1817.9
2015-Mar-27 19:33N 54°39' W 000°27'1817.6
2015-Mar-27 18:33N 54°49' W 000°53'2017.4
2015-Mar-27 17:22N 55°01' W 001°22'20 2.1
2015-Mar-27 07:32N 54°50' W 000°52'1817.4
2015-Mar-27 06:30N 54°40' W 000°26'1616.7
2015-Mar-27 05:34N 54°31' W 000°04'1616.5
2015-Mar-27 04:34N 54°22' E 000°20'1916.3
2015-Mar-27 03:25N 54°12' E 000°47'14015.7
2015-Mar-26 18:29N 52°49' E 003°57'1617.5
2015-Mar-26 17:34N 52°38' E 004°15'1515.4
2015-Mar-26 16:33N 52°28' E 004°34'0 0.4
2015-Mar-26 15:31N 52°28' E 004°35'0 0.0
2015-Mar-26 14:31N 52°28' E 004°35'0 0.0
2015-Mar-26 13:31N 52°28' E 004°35'0 0.0
2015-Mar-26 12:31N 52°28' E 004°35'0 0.0
2015-Mar-26 11:31N 52°28' E 004°35'0 0.0
2015-Mar-26 10:31N 52°28' E 004°35'0 0.0
2015-Mar-26 09:28N 52°28' E 004°35'0 0.0
2015-Mar-26 08:33N 52°28' E 004°35'1211.6
2015-Mar-26 07:33N 52°34' E 004°20'1515.0
2015-Mar-26 06:33N 52°44' E 004°01'15617.4
2015-Mar-25 21:33N 54°18' E 000°30'1918.8
2015-Mar-25 20:33N 54°28' E 000°03'1918.9
2015-Mar-25 19:33N 54°38' W 000°24'1918.4
2015-Mar-25 18:33N 54°49' W 000°51'1817.3
2015-Mar-25 17:32N 54°58' W 001°17'4 0.5
2015-Mar-25 08:14N 54°56' W 001°10'1214.6
2015-Mar-25 07:25N 54°50' W 000°52'2015.0
2015-Mar-25 06:07N 54°39' W 000°24'916.8
2015-Mar-25 05:33N 54°34' W 000°10'1717.3
2015-Mar-25 04:34N 54°24' E 000°14'1818.1
2015-Mar-25 03:33N 54°14' E 000°40'14616.3
2015-Mar-24 18:33N 52°46' E 003°56'1515.5
2015-Mar-24 17:33N 52°36' E 004°16'1414.1
2015-Mar-24 16:33N 52°28' E 004°34'0 0.4
2015-Mar-24 15:31N 52°28' E 004°35'0 0.0
2015-Mar-24 14:28N 52°28' E 004°35'0 0.0
2015-Mar-24 13:31N 52°28' E 004°35'0 0.0
2015-Mar-24 12:31N 52°28' E 004°35'0 0.0
2015-Mar-24 11:22N 52°28' E 004°35'0 0.0
2015-Mar-24 10:31N 52°28' E 004°35'0 0.0
2015-Mar-24 09:28N 52°28' E 004°35'0 0.1
2015-Mar-24 08:34N 52°28' E 004°35'1312.7
2015-Mar-24 07:33N 52°36' E 004°18'1716.3
2015-Mar-24 06:31N 52°46' E 003°56'14517.7
2015-Mar-23 22:22N 54°13' E 000°43'1417.2
2015-Mar-23 21:34N 54°21' E 000°23'1717.5
2015-Mar-23 20:34N 54°30' W 000°03'1817.9
2015-Mar-23 19:34N 54°40' W 000°29'1818.0
2015-Mar-23 18:33N 54°50' W 000°55'1717.5
2015-Mar-23 17:33N 54°59' W 001°20'18 1.7
2015-Mar-23 07:18N 54°51' W 000°53'1215.9
2015-Mar-23 06:33N 54°44' W 000°36'1616.1
2015-Mar-23 05:31N 54°35' W 000°12'1515.9
2015-Mar-23 04:34N 54°26' E 000°09'1716.5
2015-Mar-23 03:33N 54°17' E 000°33'17116.6
2015-Mar-22 17:16N 52°34' E 004°21'1014.1
2015-Mar-22 16:33N 52°28' E 004°35'0 0.3
2015-Mar-22 15:28N 52°28' E 004°35'0 0.0
2015-Mar-22 14:31N 52°28' E 004°35'0 0.0
2015-Mar-22 13:28N 52°28' E 004°35'0 0.0
2015-Mar-22 12:31N 52°28' E 004°35'0 0.0
2015-Mar-22 11:19N 52°28' E 004°35'0 0.0
2015-Mar-22 10:25N 52°28' E 004°35'0 0.0
2015-Mar-22 09:31N 52°28' E 004°35'1 0.6
2015-Mar-22 08:34N 52°28' E 004°34'1915.9
2015-Mar-22 07:23N 52°39' E 004°10'15617.2
2015-Mar-21 22:20N 54°14' E 000°41'1317.2
2015-Mar-21 21:34N 54°21' E 000°22'1616.3
2015-Mar-21 20:33N 54°30' W 000°01'1716.8
2015-Mar-21 19:34N 54°39' W 000°26'33 2.9
2015-Mar-21 08:12N 54°58' W 001°13'1015.5
2015-Mar-21 07:33N 54°52' W 000°59'1615.4
2015-Mar-21 06:32N 54°44' W 000°36'1414.5
2015-Mar-21 05:33N 54°36' W 000°15'1414.5
2015-Mar-21 04:33N 54°28' E 000°05'1414.4
2015-Mar-21 03:33N 54°20' E 000°26'17317.1
2015-Mar-20 17:28N 52°36' E 004°18'1314.1
2015-Mar-20 16:33N 52°28' E 004°35'0 0.2
2015-Mar-20 15:33N 52°28' E 004°35'0 0.0
2015-Mar-20 14:33N 52°28' E 004°35'0 0.0
2015-Mar-20 13:33N 52°28' E 004°35'0 0.0
2015-Mar-20 12:33N 52°28' E 004°35'0 0.0
2015-Mar-20 11:33N 52°28' E 004°35'0 0.0
2015-Mar-20 10:30N 52°28' E 004°35'0 0.0
2015-Mar-20 09:33N 52°28' E 004°35'0 0.2
2015-Mar-20 08:33N 52°28' E 004°35'1414.2
2015-Mar-20 07:33N 52°36' E 004°16'1818.2
2015-Mar-20 06:33N 52°48' E 003°53'1918.3
2015-Mar-20 05:32N 53°00' E 003°30'9717.9
2015-Mar-20 00:06N 53°59' E 001°20'1716.4
2015-Mar-19 23:04N 54°08' E 000°55'916.4
2015-Mar-19 22:30N 54°13' E 000°42'1616.4
2015-Mar-19 21:33N 54°22' E 000°20'1616.4
2015-Mar-19 20:33N 54°31' W 000°04'1616.4
2015-Mar-19 19:33N 54°40' W 000°27'1716.7
2015-Mar-19 18:33N 54°50' W 000°51'1817.3
2015-Mar-19 17:29N 54°59' W 001°19'5 0.5
2015-Mar-19 08:10N 54°57' W 001°11'1215.5
2015-Mar-19 07:25N 54°51' W 000°54'2115.3
2015-Mar-19 06:03N 54°39' W 000°24'815.0
2015-Mar-19 05:33N 54°35' W 000°13'1514.7
2015-Mar-19 04:33N 54°27' E 000°07'1716.6
2015-Mar-19 03:33N 54°18' E 000°31'  
Track history (hours):
 
Tides and Currents Weather Stations Pressure Air Temp Water Temp Dewpoint Dewpoint Depression Visibility Wind Speed Wind Dir Waves Ship Positions

King of Scandinavia

Ship's website: http://www.dfds.co.uk/DSW/EN/OnBoard/na/KING.htm

Last reported at 2015-Mar-28 17:33 UTC. Time now 2015-Mar-29 01:11 UTC.
Position N 52°33' E 004°22'.

Length 166 m; beam 27.6 m; draft 6.2 m.

Type: Passenger vessel. MMSI: 220449000.

Date/timePositionNaut miles runAvg speedWind from/ knotsBaromVisibWave heightAir tempDewpointWater temp
2015-Mar-28 17:33N 52°33' E 004°22'9 8.1
2015-Mar-28 16:23N 52°28' E 004°35'0 0.0
2015-Mar-28 15:32N 52°28' E 004°35'0 0.0
2015-Mar-28 14:32N 52°28' E 004°35'0 0.0
2015-Mar-28 13:32N 52°28' E 004°35'0 0.0
2015-Mar-28 12:32N 52°28' E 004°35'0 0.0
2015-Mar-28 11:26N 52°28' E 004°35'0 0.0
2015-Mar-28 10:32N 52°28' E 004°35'0 0.0
2015-Mar-28 09:32N 52°28' E 004°35'0 0.0
2015-Mar-28 08:33N 52°28' E 004°35'1111.4
2015-Mar-28 07:33N 52°34' E 004°20'2116.0
2015-Mar-28 06:15N 52°48' E 003°53'5317.3
2015-Mar-28 03:10N 53°23' E 002°46'8318.0
2015-Mar-27 22:33N 54°10' E 000°51'1818.0
2015-Mar-27 21:33N 54°20' E 000°25'1818.1
2015-Mar-27 20:33N 54°30' W 000°01'1817.9
2015-Mar-27 19:33N 54°39' W 000°27'1817.6
2015-Mar-27 18:33N 54°49' W 000°53'2017.4
2015-Mar-27 17:22N 55°01' W 001°22'20 2.1
2015-Mar-27 07:32N 54°50' W 000°52'1817.4
2015-Mar-27 06:30N 54°40' W 000°26'1616.7
2015-Mar-27 05:34N 54°31' W 000°04'1616.5
2015-Mar-27 04:34N 54°22' E 000°20'1916.3
2015-Mar-27 03:25N 54°12' E 000°47'14015.7
2015-Mar-26 18:29N 52°49' E 003°57'1617.5
2015-Mar-26 17:34N 52°38' E 004°15'1515.4
2015-Mar-26 16:33N 52°28' E 004°34'0 0.4
2015-Mar-26 15:31N 52°28' E 004°35'0 0.0
2015-Mar-26 14:31N 52°28' E 004°35'0 0.0
2015-Mar-26 13:31N 52°28' E 004°35'0 0.0
2015-Mar-26 12:31N 52°28' E 004°35'0 0.0
2015-Mar-26 11:31N 52°28' E 004°35'0 0.0
2015-Mar-26 10:31N 52°28' E 004°35'0 0.0
2015-Mar-26 09:28N 52°28' E 004°35'0 0.0
2015-Mar-26 08:33N 52°28' E 004°35'1211.6
2015-Mar-26 07:33N 52°34' E 004°20'1515.0
2015-Mar-26 06:33N 52°44' E 004°01'15617.4
2015-Mar-25 21:33N 54°18' E 000°30'1918.8
2015-Mar-25 20:33N 54°28' E 000°03'1918.9
2015-Mar-25 19:33N 54°38' W 000°24'1918.4
2015-Mar-25 18:33N 54°49' W 000°51'1817.3
2015-Mar-25 17:32N 54°58' W 001°17'4 0.5
2015-Mar-25 08:14N 54°56' W 001°10'1214.6
2015-Mar-25 07:25N 54°50' W 000°52'2015.0
2015-Mar-25 06:07N 54°39' W 000°24'916.8
2015-Mar-25 05:33N 54°34' W 000°10'1717.3
2015-Mar-25 04:34N 54°24' E 000°14'1818.1
2015-Mar-25 03:33N 54°14' E 000°40'14616.3
2015-Mar-24 18:33N 52°46' E 003°56'1515.5
2015-Mar-24 17:33N 52°36' E 004°16'1414.1
2015-Mar-24 16:33N 52°28' E 004°34'0 0.4
2015-Mar-24 15:31N 52°28' E 004°35'0 0.0
2015-Mar-24 14:28N 52°28' E 004°35'0 0.0
2015-Mar-24 13:31N 52°28' E 004°35'0 0.0
2015-Mar-24 12:31N 52°28' E 004°35'0 0.0
2015-Mar-24 11:22N 52°28' E 004°35'0 0.0
2015-Mar-24 10:31N 52°28' E 004°35'0 0.0
2015-Mar-24 09:28N 52°28' E 004°35'0 0.1
2015-Mar-24 08:34N 52°28' E 004°35'1312.7
2015-Mar-24 07:33N 52°36' E 004°18'1716.3
2015-Mar-24 06:31N 52°46' E 003°56'14517.7
2015-Mar-23 22:22N 54°13' E 000°43'1417.2
2015-Mar-23 21:34N 54°21' E 000°23'1717.5
2015-Mar-23 20:34N 54°30' W 000°03'1817.9
2015-Mar-23 19:34N 54°40' W 000°29'1818.0
2015-Mar-23 18:33N 54°50' W 000°55'1717.5
2015-Mar-23 17:33N 54°59' W 001°20'18 1.7
2015-Mar-23 07:18N 54°51' W 000°53'1215.9
2015-Mar-23 06:33N 54°44' W 000°36'1616.1
2015-Mar-23 05:31N 54°35' W 000°12'1515.9
2015-Mar-23 04:34N 54°26' E 000°09'1716.5
2015-Mar-23 03:33N 54°17' E 000°33'17116.6
2015-Mar-22 17:16N 52°34' E 004°21'1014.1
2015-Mar-22 16:33N 52°28' E 004°35'0 0.3
2015-Mar-22 15:28N 52°28' E 004°35'0 0.0
2015-Mar-22 14:31N 52°28' E 004°35'0 0.0
2015-Mar-22 13:28N 52°28' E 004°35'0 0.0
2015-Mar-22 12:31N 52°28' E 004°35'0 0.0
2015-Mar-22 11:19N 52°28' E 004°35'0 0.0
2015-Mar-22 10:25N 52°28' E 004°35'0 0.0
2015-Mar-22 09:31N 52°28' E 004°35'1 0.6
2015-Mar-22 08:34N 52°28' E 004°34'1915.9
2015-Mar-22 07:23N 52°39' E 004°10'15617.2
2015-Mar-21 22:20N 54°14' E 000°41'1317.2
2015-Mar-21 21:34N 54°21' E 000°22'1616.3
2015-Mar-21 20:33N 54°30' W 000°01'1716.8
2015-Mar-21 19:34N 54°39' W 000°26'33 2.9
2015-Mar-21 08:12N 54°58' W 001°13'1015.5
2015-Mar-21 07:33N 54°52' W 000°59'1615.4
2015-Mar-21 06:32N 54°44' W 000°36'1414.5
2015-Mar-21 05:33N 54°36' W 000°15'1414.5
2015-Mar-21 04:33N 54°28' E 000°05'1414.4
2015-Mar-21 03:33N 54°20' E 000°26'17317.1
2015-Mar-20 17:28N 52°36' E 004°18'1314.1
2015-Mar-20 16:33N 52°28' E 004°35'0 0.2
2015-Mar-20 15:33N 52°28' E 004°35'0 0.0
2015-Mar-20 14:33N 52°28' E 004°35'0 0.0
2015-Mar-20 13:33N 52°28' E 004°35'0 0.0
2015-Mar-20 12:33N 52°28' E 004°35'0 0.0
2015-Mar-20 11:33N 52°28' E 004°35'0 0.0
2015-Mar-20 10:30N 52°28' E 004°35'0 0.0
2015-Mar-20 09:33N 52°28' E 004°35'0 0.2
2015-Mar-20 08:33N 52°28' E 004°35'1414.2
2015-Mar-20 07:33N 52°36' E 004°16'1818.2
2015-Mar-20 06:33N 52°48' E 003°53'1918.3
2015-Mar-20 05:32N 53°00' E 003°30'9717.9
2015-Mar-20 00:06N 53°59' E 001°20'1716.4
2015-Mar-19 23:04N 54°08' E 000°55'916.4
2015-Mar-19 22:30N 54°13' E 000°42'1616.4
2015-Mar-19 21:33N 54°22' E 000°20'1616.4
2015-Mar-19 20:33N 54°31' W 000°04'1616.4
2015-Mar-19 19:33N 54°40' W 000°27'1716.7
2015-Mar-19 18:33N 54°50' W 000°51'1817.3
2015-Mar-19 17:29N 54°59' W 001°19'5 0.5
2015-Mar-19 08:10N 54°57' W 001°11'1215.5
2015-Mar-19 07:25N 54°51' W 000°54'2115.3
2015-Mar-19 06:03N 54°39' W 000°24'815.0
2015-Mar-19 05:33N 54°35' W 000°13'1514.7
2015-Mar-19 04:33N 54°27' E 000°07'1716.6
2015-Mar-19 03:33N 54°18' E 000°31'  

Dump ship's entire track history